Time,TemperatureF,DewpointF,PressureIn,WindDirection,WindDirectionDegrees,WindSpeedMPH,WindSpeedGustMPH,Humidity,HourlyPrecipIn,Conditions,Clouds,dailyrainin,SoftwareType,DateUTC
2013-11-16 00:08:00,65.6,40.0,29.59,ENE,75,4.0,12.0,39,0.00,,,0.00,weatherlink.com 1.10,2013-11-16 07:08:00,
2013-11-16 00:23:00,65.2,40.0,29.59,East,96,8.0,14.0,40,0.00,,,0.00,weatherlink.com 1.10,2013-11-16 07:23:00,
2013-11-16 00:38:00,65.1,41.0,29.59,ENE,58,9.0,15.0,41,0.00,,,0.00,weatherlink.com 1.10,2013-11-16 07:38:00,
2013-11-16 00:53:00,64.9,41.0,29.59,ENE,65,6.0,14.0,42,0.00,,,0.00,weatherlink.com 1.10,2013-11-16 07:53:00,
2013-11-16 01:08:00,64.4,41.0,29.59,ENE,63,9.0,13.0,43,0.00,,,0.00,weatherlink.com 1.10,2013-11-16 08:08:00,
2013-11-16 01:23:00,64.2,42.0,29.59,East,79,9.0,13.0,44,0.00,,,0.00,weatherlink.com 1.10,2013-11-16 08:23:00,
2013-11-16 01:38:00,63.9,42.0,29.60,ENE,64,9.0,13.0,45,0.00,,,0.00,weatherlink.com 1.10,2013-11-16 08:38:00,
2013-11-16 01:53:00,63.3,42.0,29.60,East,91,7.0,12.0,46,0.00,,,0.00,weatherlink.com 1.10,2013-11-16 08:53:00,
2013-11-16 02:08:00,63.2,42.0,29.61,ENE,68,6.0,13.0,46,0.00,,,0.00,weatherlink.com 1.10,2013-11-16 09:08:00,
2013-11-16 02:24:00,62.9,42.0,29.62,ENE,71,5.0,14.0,46,0.00,,,0.00,weatherlink.com 1.10,2013-11-16 09:24:00,
2013-11-16 02:39:00,62.8,42.0,29.62,ENE,66,8.0,11.0,46,0.00,,,0.00,weatherlink.com 1.10,2013-11-16 09:39:00,
2013-11-16 02:54:00,62.5,42.0,29.62,East,84,5.0,12.0,47,0.00,,,0.00,weatherlink.com 1.10,2013-11-16 09:54:00,
2013-11-16 03:09:00,62.4,41.0,29.63,East,95,5.0,12.0,46,0.00,,,0.00,weatherlink.com 1.10,2013-11-16 10:09:00,
2013-11-16 03:24:00,62.4,42.0,29.63,NE,55,4.0,11.0,47,0.00,,,0.00,weatherlink.com 1.10,2013-11-16 10:24:00,
2013-11-16 03:39:00,62.5,41.0,29.64,East,88,6.0,10.0,46,0.00,,,0.00,weatherlink.com 1.10,2013-11-16 10:39:00,
2013-11-16 03:54:00,62.5,41.0,29.64,NE,53,8.0,11.0,46,0.00,,,0.00,weatherlink.com 1.10,2013-11-16 10:54:00,
2013-11-16 04:09:00,62.1,41.0,29.64,ENE,59,8.0,11.0,47,0.00,,,0.00,weatherlink.com 1.10,2013-11-16 11:09:00,
2013-11-16 04:24:00,62.1,41.0,29.64,ESE,104,6.0,11.0,46,0.00,,,0.00,weatherlink.com 1.10,2013-11-16 11:24:00,
2013-11-16 04:39:00,61.8,41.0,29.64,ESE,104,9.0,14.0,47,0.00,,,0.00,weatherlink.com 1.10,2013-11-16 11:39:00,
2013-11-16 04:54:00,61.7,41.0,29.64,East,93,7.0,15.0,47,0.00,,,0.00,weatherlink.com 1.10,2013-11-16 11:54:00,
2013-11-16 05:09:00,61.3,42.0,29.65,ESE,114,5.0,11.0,49,0.00,,,0.00,weatherlink.com 1.10,2013-11-16 12:09:00,
2013-11-16 05:24:00,61.2,43.0,29.65,East,91,8.0,13.0,51,0.00,,,0.00,weatherlink.com 1.10,2013-11-16 12:24:00,
2013-11-16 05:39:00,60.9,44.0,29.65,East,94,11.0,13.0,54,0.00,,,0.00,weatherlink.com 1.10,2013-11-16 12:39:00,
2013-11-16 05:54:00,60.4,43.0,29.65,ENE,78,7.0,12.0,54,0.00,,,0.00,weatherlink.com 1.10,2013-11-16 12:54:00,
2013-11-16 06:09:00,60.1,44.0,29.64,ENE,77,6.0,10.0,56,0.00,,,0.00,weatherlink.com 1.10,2013-11-16 13:09:00,
2013-11-16 06:24:00,59.8,47.0,29.65,East,89,7.0,13.0,62,0.00,,,0.00,weatherlink.com 1.10,2013-11-16 13:24:00,
2013-11-16 06:40:00,59.8,47.0,29.65,East,91,9.0,11.0,63,0.00,,,0.00,weatherlink.com 1.10,2013-11-16 13:40:00,
2013-11-16 06:57:00,59.7,46.0,29.66,NE,53,6.0,13.0,60,0.00,,,0.00,weatherlink.com 1.10,2013-11-16 13:57:00,
2013-11-16 07:14:00,59.9,45.0,29.67,East,98,8.0,12.0,59,0.00,,,0.00,weatherlink.com 1.10,2013-11-16 14:14:00,
2013-11-16 07:32:00,59.8,45.0,29.68,NE,51,6.0,12.0,59,0.00,,,0.00,weatherlink.com 1.10,2013-11-16 14:32:00,
2013-11-16 07:49:00,60.4,45.0,29.70,ENE,67,7.0,13.0,58,0.00,,,0.00,weatherlink.com 1.10,2013-11-16 14:49:00,
2013-11-16 08:07:00,61.3,44.0,29.71,East,89,7.0,12.0,53,0.00,,,0.00,weatherlink.com 1.10,2013-11-16 15:07:00,
2013-11-16 08:24:00,62.1,44.0,29.72,East,84,12.0,13.0,51,0.00,,,0.00,weatherlink.com 1.10,2013-11-16 15:24:00,
2013-11-16 08:39:00,62.4,43.0,29.72,East,91,13.0,15.0,50,0.00,,,0.00,weatherlink.com 1.10,2013-11-16 15:39:00,
2013-11-16 08:54:00,62.5,43.0,29.72,ESE,112,12.0,17.0,50,0.00,,,0.00,weatherlink.com 1.10,2013-11-16 15:54:00,
2013-11-16 09:09:00,62.9,43.0,29.73,East,99,10.0,15.0,49,0.00,,,0.00,weatherlink.com 1.10,2013-11-16 16:09:00,
2013-11-16 09:24:00,63.2,42.0,29.73,East,101,10.0,18.0,47,0.00,,,0.00,weatherlink.com 1.10,2013-11-16 16:24:00,
2013-11-16 09:39:00,63.9,43.0,29.74,East,99,13.0,13.0,47,0.00,,,0.00,weatherlink.com 1.10,2013-11-16 16:39:00,
2013-11-16 09:54:00,64.4,43.0,29.75,East,92,6.0,16.0,46,0.00,,,0.00,weatherlink.com 1.10,2013-11-16 16:54:00,
2013-11-16 10:09:00,64.7,42.0,29.75,ESE,113,8.0,13.0,44,0.00,,,0.00,weatherlink.com 1.10,2013-11-16 17:09:00,
2013-11-16 10:24:00,64.9,42.0,29.75,SE,139,5.0,15.0,44,0.00,,,0.00,weatherlink.com 1.10,2013-11-16 17:24:00,
2013-11-16 10:39:00,65.5,42.0,29.76,SE,124,7.0,13.0,43,0.00,,,0.00,weatherlink.com 1.10,2013-11-16 17:39:00,
2013-11-16 10:54:00,65.7,42.0,29.76,SE,144,8.0,14.0,43,0.00,,,0.00,weatherlink.com 1.10,2013-11-16 17:54:00,
2013-11-16 11:09:00,66.0,43.0,29.76,SE,146,9.0,14.0,43,0.00,,,0.00,weatherlink.com 1.10,2013-11-16 18:09:00,
2013-11-16 11:24:00,66.7,43.0,29.76,East,99,6.0,12.0,42,0.00,,,0.00,weatherlink.com 1.10,2013-11-16 18:24:00,
2013-11-16 11:39:00,67.2,43.0,29.75,ESE,122,5.0,15.0,41,0.00,,,0.00,weatherlink.com 1.10,2013-11-16 18:39:00,
2013-11-16 11:57:00,67.6,42.0,29.74,SE,127,7.0,16.0,40,0.00,,,0.00,weatherlink.com 1.10,2013-11-16 18:57:00,
2013-11-16 12:14:00,68.6,43.0,29.73,SE,136,8.0,15.0,39,0.00,,,0.00,weatherlink.com 1.10,2013-11-16 19:14:00,
2013-11-16 12:31:00,68.6,43.0,29.72,ESE,105,5.0,15.0,39,0.00,,,0.00,weatherlink.com 1.10,2013-11-16 19:31:00,
2013-11-16 12:49:00,69.2,42.0,29.71,East,101,10.0,16.0,38,0.00,,,0.00,weatherlink.com 1.10,2013-11-16 19:49:00,
2013-11-16 13:03:00,69.2,42.0,29.70,SE,131,12.0,19.0,38,0.00,,,0.00,weatherlink.com 1.10,2013-11-16 20:03:00,
2013-11-16 13:18:00,70.1,43.0,29.70,SSE,154,6.0,15.0,38,0.00,,,0.00,weatherlink.com 1.10,2013-11-16 20:18:00,
2013-11-16 13:33:00,70.5,42.0,29.69,SE,136,7.0,18.0,36,0.00,,,0.00,weatherlink.com 1.10,2013-11-16 20:33:00,
2013-11-16 13:48:00,71.0,43.0,29.69,SE,138,11.0,20.0,36,0.00,,,0.00,weatherlink.com 1.10,2013-11-16 20:48:00,
2013-11-16 14:04:00,70.6,43.0,29.68,ESE,117,12.0,21.0,37,0.00,,,0.00,weatherlink.com 1.10,2013-11-16 21:04:00,
2013-11-16 14:19:00,70.1,43.0,29.68,SE,144,13.0,16.0,38,0.00,,,0.00,weatherlink.com 1.10,2013-11-16 21:19:00,
2013-11-16 14:35:00,71.1,42.0,29.68,ESE,112,16.0,17.0,35,0.00,,,0.00,weatherlink.com 1.10,2013-11-16 21:35:00,
2013-11-16 14:50:00,70.8,41.0,29.68,East,98,9.0,16.0,34,0.00,,,0.00,weatherlink.com 1.10,2013-11-16 21:50:00,
2013-11-16 15:05:00,71.2,41.0,29.68,SE,131,6.0,16.0,33,0.00,,,0.00,weatherlink.com 1.10,2013-11-16 22:05:00,
2013-11-16 15:20:00,71.7,40.0,29.69,SSE,150,5.0,19.0,32,0.00,,,0.00,weatherlink.com 1.10,2013-11-16 22:20:00,
2013-11-16 15:35:00,71.2,39.0,29.69,SE,124,5.0,14.0,31,0.00,,,0.00,weatherlink.com 1.10,2013-11-16 22:35:00,
2013-11-16 15:50:00,71.4,39.0,29.70,ESE,122,8.0,14.0,31,0.00,,,0.00,weatherlink.com 1.10,2013-11-16 22:50:00,
2013-11-16 16:20:00,71.0,40.0,29.71,ESE,117,8.0,11.0,33,0.00,,,0.00,weatherlink.com 1.10,2013-11-16 23:20:00,
2013-11-16 16:35:00,70.4,40.0,29.71,SSE,161,8.0,13.0,33,0.00,,,0.00,weatherlink.com 1.10,2013-11-16 23:35:00,
2013-11-16 16:50:00,69.9,39.0,29.71,SE,127,7.0,13.0,33,0.00,,,0.00,weatherlink.com 1.10,2013-11-16 23:50:00,
2013-11-16 17:05:00,69.4,40.0,29.72,SE,136,10.0,12.0,34,0.00,,,0.00,weatherlink.com 1.10,2013-11-17 00:05:00,
2013-11-16 17:20:00,68.8,39.0,29.72,East,91,5.0,13.0,34,0.00,,,0.00,weatherlink.com 1.10,2013-11-17 00:20:00,
2013-11-16 17:35:00,68.3,40.0,29.72,ESE,108,8.0,12.0,35,0.00,,,0.00,weatherlink.com 1.10,2013-11-17 00:35:00,
2013-11-16 17:50:00,67.9,39.0,29.72,SE,146,4.0,10.0,35,0.00,,,0.00,weatherlink.com 1.10,2013-11-17 00:50:00,
2013-11-16 18:05:00,67.7,39.0,29.73,ESE,115,7.0,11.0,35,0.00,,,0.00,weatherlink.com 1.10,2013-11-17 01:05:00,
2013-11-16 18:20:00,67.4,39.0,29.73,SE,129,5.0,8.0,35,0.00,,,0.00,weatherlink.com 1.10,2013-11-17 01:20:00,
2013-11-16 18:35:00,67.3,38.0,29.74,SE,139,3.0,10.0,34,0.00,,,0.00,weatherlink.com 1.10,2013-11-17 01:35:00,
2013-11-16 18:50:00,66.8,38.0,29.74,ESE,105,2.0,5.0,35,0.00,,,0.00,weatherlink.com 1.10,2013-11-17 01:50:00,
2013-11-16 19:05:00,66.6,38.0,29.74,East,82,2.0,7.0,35,0.00,,,0.00,weatherlink.com 1.10,2013-11-17 02:05:00,
2013-11-16 19:20:00,65.7,39.0,29.75,East,91,4.0,6.0,37,0.00,,,0.00,weatherlink.com 1.10,2013-11-17 02:20:00,
2013-11-16 19:35:00,65.4,38.0,29.75,ESE,113,3.0,6.0,36,0.00,,,0.00,weatherlink.com 1.10,2013-11-17 02:35:00,
2013-11-16 19:50:00,65.1,38.0,29.76,East,87,3.0,7.0,37,0.00,,,0.00,weatherlink.com 1.10,2013-11-17 02:50:00,
2013-11-16 20:05:00,64.3,38.0,29.76,ENE,68,2.0,4.0,38,0.00,,,0.00,weatherlink.com 1.10,2013-11-17 03:05:00,
2013-11-16 20:20:00,64.0,38.0,29.77,ENE,64,2.0,4.0,38,0.00,,,0.00,weatherlink.com 1.10,2013-11-17 03:20:00,
2013-11-16 20:35:00,63.6,38.0,29.78,NE,41,5.0,6.0,39,0.00,,,0.00,weatherlink.com 1.10,2013-11-17 03:35:00,
2013-11-16 20:50:00,63.8,38.0,29.78,ENE,70,5.0,8.0,39,0.00,,,0.00,weatherlink.com 1.10,2013-11-17 03:50:00,
2013-11-16 21:05:00,63.7,38.0,29.79,ENE,60,5.0,6.0,39,0.00,,,0.00,weatherlink.com 1.10,2013-11-17 04:05:00,
2013-11-16 21:20:00,63.6,38.0,29.80,ENE,65,3.0,6.0,39,0.00,,,0.00,weatherlink.com 1.10,2013-11-17 04:20:00,
2013-11-16 21:35:00,63.3,38.0,29.80,ENE,63,5.0,6.0,40,0.00,,,0.00,weatherlink.com 1.10,2013-11-17 04:35:00,
2013-11-16 21:50:00,63.5,38.0,29.80,NE,46,4.0,8.0,39,0.00,,,0.00,weatherlink.com 1.10,2013-11-17 04:50:00,
2013-11-16 22:05:00,63.3,38.0,29.81,East,81,3.0,8.0,40,0.00,,,0.00,weatherlink.com 1.10,2013-11-17 05:05:00,
2013-11-16 22:20:00,63.1,38.0,29.81,ENE,65,6.0,7.0,40,0.00,,,0.00,weatherlink.com 1.10,2013-11-17 05:20:00,
2013-11-16 22:35:00,62.8,38.0,29.81,ENE,62,6.0,8.0,40,0.00,,,0.00,weatherlink.com 1.10,2013-11-17 05:35:00,
2013-11-16 22:50:00,62.8,39.0,29.82,ENE,59,4.0,7.0,41,0.00,,,0.00,weatherlink.com 1.10,2013-11-17 05:50:00,
2013-11-16 23:05:00,62.5,38.0,29.82,East,82,3.0,7.0,41,0.00,,,0.00,weatherlink.com 1.10,2013-11-17 06:05:00,
2013-11-16 23:20:00,62.1,38.0,29.82,East,85,5.0,7.0,41,0.00,,,0.00,weatherlink.com 1.10,2013-11-17 06:20:00,
2013-11-16 23:35:00,62.0,38.0,29.83,NE,54,5.0,8.0,41,0.00,,,0.00,weatherlink.com 1.10,2013-11-17 06:35:00,
2013-11-16 23:50:00,62.4,38.0,29.84,ENE,64,6.0,7.0,41,0.00,,,0.00,weatherlink.com 1.10,2013-11-17 06:50:00,